createdAt,value
2023-01-22T00:00:31.267Z,93.70
2023-01-22T00:01:31.260Z,93.18
2023-01-22T00:02:31.312Z,93.07
2023-01-22T00:03:31.281Z,92.55
2023-01-22T00:04:31.242Z,93.60
2023-01-22T00:05:31.240Z,93.85
2023-01-22T00:06:31.203Z,93.74
2023-01-22T00:07:31.189Z,94.12
2023-01-22T00:08:31.180Z,93.70
2023-01-22T00:09:31.161Z,93.39
2023-01-22T00:10:31.149Z,93.39
2023-01-22T00:11:31.196Z,93.07
2023-01-22T00:12:31.120Z,92.45
2023-01-22T00:13:31.249Z,92.97
2023-01-22T00:14:31.142Z,93.07
2023-01-22T00:15:31.280Z,93.07
2023-01-22T00:16:31.093Z,92.93
2023-01-22T00:17:31.091Z,92.20
2023-01-22T00:18:31.051Z,92.45
2023-01-22T00:19:31.051Z,92.30
2023-01-22T00:20:31.045Z,91.68
2023-01-22T00:21:31.060Z,91.99
2023-01-22T00:22:31.073Z,91.99
2023-01-22T00:23:31.060Z,92.14
2023-01-22T00:24:30.992Z,92.24
2023-01-22T00:25:31.011Z,92.41
2023-01-22T00:26:30.964Z,92.45
2023-01-22T00:27:30.964Z,92.41
2023-01-22T00:28:30.987Z,91.83
2023-01-22T00:29:30.954Z,92.24
2023-01-22T00:30:30.927Z,92.55
2023-01-22T00:31:30.962Z,92.55
2023-01-22T00:32:30.894Z,92.61
2023-01-22T00:33:30.917Z,92.10
2023-01-22T00:34:30.909Z,91.58
2023-01-22T00:35:30.866Z,91.72
2023-01-22T00:36:30.862Z,91.68
2023-01-22T00:37:30.877Z,91.47
2023-01-22T00:38:30.844Z,91.99
2023-01-22T00:39:30.876Z,91.16
2023-01-22T00:40:30.814Z,90.85
2023-01-22T00:41:30.821Z,91.16
2023-01-22T00:42:30.786Z,92.03
2023-01-22T00:43:30.791Z,91.99
2023-01-22T00:44:30.764Z,91.27
2023-01-22T00:45:30.796Z,91.06
2023-01-22T00:46:30.805Z,91.02
2023-01-22T00:47:30.746Z,90.50
2023-01-22T00:48:30.714Z,90.19
2023-01-22T00:49:30.730Z,90.26
2023-01-22T00:50:30.707Z,91.41
2023-01-22T00:51:30.736Z,91.62
2023-01-22T00:52:30.689Z,92.14
2023-01-22T00:53:30.685Z,91.68
2023-01-22T00:54:30.644Z,91.47
2023-01-22T00:55:30.671Z,90.75
2023-01-22T00:56:30.644Z,91.06
2023-01-22T00:57:30.635Z,91.37
2023-01-22T00:58:30.613Z,91.06
2023-01-22T00:59:30.595Z,91.93
2023-01-22T01:00:30.622Z,91.62
2023-01-22T01:01:30.573Z,92.03
2023-01-22T01:02:30.568Z,91.99
2023-01-22T01:03:30.591Z,91.58
2023-01-22T01:04:30.553Z,91.47
2023-01-22T01:05:30.535Z,91.27
2023-01-22T01:06:30.532Z,90.85
2023-01-22T01:07:30.518Z,91.16
2023-01-22T01:08:30.545Z,90.95
2023-01-22T01:09:30.496Z,90.95
2023-01-22T01:10:30.515Z,90.85
2023-01-22T01:11:30.481Z,90.44
2023-01-22T01:12:30.455Z,90.89
2023-01-22T01:13:30.463Z,91.20
2023-01-22T01:14:30.443Z,91.06
2023-01-22T01:15:30.416Z,90.95
2023-01-22T01:16:30.469Z,90.54
2023-01-22T01:17:30.413Z,90.50
2023-01-22T01:18:30.377Z,90.33
2023-01-22T01:19:30.377Z,90.44
2023-01-22T01:20:30.386Z,90.64
2023-01-22T01:21:30.357Z,90.85
2023-01-22T01:22:30.335Z,90.64
2023-01-22T01:23:30.340Z,90.95
2023-01-22T01:24:30.306Z,90.44
2023-01-22T01:25:30.306Z,90.39
2023-01-22T01:26:30.323Z,89.98
2023-01-22T01:27:30.299Z,89.87
2023-01-22T01:28:30.266Z,89.56
2023-01-22T01:29:30.267Z,89.98
2023-01-22T01:30:30.325Z,89.67
2023-01-22T01:31:30.321Z,89.67
2023-01-22T01:32:30.250Z,89.60
2023-01-22T01:33:30.219Z,89.81
2023-01-22T01:34:30.203Z,89.92
2023-01-22T01:35:30.203Z,89.70
2023-01-22T01:36:47.728Z,89.46
2023-01-22T01:37:31.196Z,89.70
2023-01-22T01:38:30.165Z,89.60
2023-01-22T01:39:30.153Z,89.98
2023-01-22T01:40:30.138Z,89.56
2023-01-22T01:41:30.138Z,88.84
2023-01-22T01:42:30.110Z,89.81
2023-01-22T01:43:30.141Z,89.70
2023-01-22T01:44:30.107Z,89.46
2023-01-22T01:45:30.083Z,89.81
2023-01-22T01:46:30.129Z,89.92
2023-01-22T01:47:30.068Z,90.23
2023-01-22T01:48:30.043Z,89.87
2023-01-22T01:49:30.146Z,89.50
2023-01-22T01:50:30.023Z,89.77
2023-01-22T01:51:30.071Z,89.46
2023-01-22T01:52:29.998Z,89.25
2023-01-22T01:53:29.995Z,89.56
2023-01-22T01:54:30.001Z,89.25
2023-01-22T01:55:29.974Z,89.15
2023-01-22T01:56:29.994Z,89.56
2023-01-22T01:57:29.939Z,89.67
2023-01-22T01:58:29.973Z,89.46
2023-01-22T01:59:29.927Z,89.25
2023-01-22T02:00:30.010Z,89.29
2023-01-22T02:01:29.905Z,89.60
2023-01-22T02:02:29.903Z,89.67
2023-01-22T02:03:29.911Z,89.77
2023-01-22T02:04:29.861Z,89.39
2023-01-22T02:05:29.862Z,90.02
2023-01-22T02:06:29.859Z,90.54
2023-01-22T02:07:29.830Z,90.08
2023-01-22T02:08:29.842Z,89.77
2023-01-22T02:09:29.809Z,89.46
2023-01-22T02:10:29.800Z,89.36
2023-01-22T02:11:29.780Z,89.56
2023-01-22T02:12:29.799Z,89.56
2023-01-22T02:13:29.784Z,89.56
2023-01-22T02:14:29.818Z,89.36
2023-01-22T02:15:29.748Z,89.56
2023-01-22T02:16:29.807Z,89.25
2023-01-22T02:17:29.758Z,89.46
2023-01-22T02:18:29.752Z,89.36
2023-01-22T02:19:29.714Z,89.98
2023-01-22T02:20:29.690Z,89.87
2023-01-22T02:21:29.684Z,89.46
2023-01-22T02:22:29.674Z,89.56
2023-01-22T02:23:29.676Z,89.25
2023-01-22T02:24:29.655Z,89.36
2023-01-22T02:25:29.620Z,89.56
2023-01-22T02:26:29.618Z,89.77
2023-01-22T02:27:29.611Z,89.56
2023-01-22T02:28:29.617Z,89.67
2023-01-22T02:29:29.613Z,89.31
2023-01-22T02:30:29.627Z,89.36
2023-01-22T02:31:29.580Z,89.31
2023-01-22T02:32:29.553Z,89.36
2023-01-22T02:33:29.542Z,89.46
2023-01-22T02:34:29.534Z,89.36
2023-01-22T02:35:29.555Z,89.25
2023-01-22T02:36:29.561Z,89.56
2023-01-22T02:37:29.508Z,89.67
2023-01-22T02:38:29.521Z,90.08
2023-01-22T02:39:29.465Z,90.08
2023-01-22T02:40:29.461Z,89.77
2023-01-22T02:41:29.488Z,90.08
2023-01-22T02:42:29.444Z,90.19
2023-01-22T02:43:29.592Z,89.87
2023-01-22T02:44:29.419Z,90.19
2023-01-22T02:45:29.491Z,89.98
2023-01-22T02:46:29.392Z,89.42
2023-01-22T02:47:29.402Z,89.31
2023-01-22T02:48:29.379Z,89.21
2023-01-22T02:49:29.365Z,88.75
2023-01-22T02:50:29.384Z,88.48
2023-01-22T02:51:29.336Z,89.36
2023-01-22T02:52:29.342Z,89.77
2023-01-22T02:53:29.323Z,89.77
2023-01-22T02:54:29.316Z,90.44
2023-01-22T02:55:29.292Z,90.81
2023-01-22T02:56:29.294Z,90.60
2023-01-22T02:57:29.322Z,90.60
2023-01-22T02:58:29.264Z,90.29
2023-01-22T02:59:29.274Z,90.08
2023-01-22T03:00:29.245Z,90.39
2023-01-22T03:01:29.267Z,89.94
2023-01-22T03:02:29.269Z,89.73
2023-01-22T03:03:29.212Z,89.77
2023-01-22T03:04:29.210Z,90.50
2023-01-22T03:05:29.260Z,90.08
2023-01-22T03:06:29.168Z,90.29
2023-01-22T03:07:29.162Z,90.29
2023-01-22T03:08:29.185Z,90.19
2023-01-22T03:09:29.135Z,89.77
2023-01-22T03:10:29.124Z,89.94
2023-01-22T03:11:29.146Z,88.90
2023-01-22T03:12:29.127Z,89.52
2023-01-22T03:13:29.094Z,89.56
2023-01-22T03:14:29.092Z,89.67
2023-01-22T03:15:29.207Z,89.67
2023-01-22T03:16:29.100Z,90.33
2023-01-22T03:17:29.065Z,90.60
2023-01-22T03:18:29.025Z,90.19
2023-01-22T03:19:29.145Z,89.52
2023-01-22T03:20:29.010Z,89.52
2023-01-22T03:21:28.996Z,89.21
2023-01-22T03:22:28.987Z,89.31
2023-01-22T03:23:29.003Z,89.00
2023-01-22T03:24:28.973Z,89.11
2023-01-22T03:25:28.956Z,89.21
2023-01-22T03:26:28.948Z,89.00
2023-01-22T03:27:28.928Z,88.59
2023-01-22T03:28:28.950Z,88.90
2023-01-22T03:29:28.904Z,89.00
2023-01-22T03:30:28.884Z,88.07
2023-01-22T03:31:29.035Z,88.62
2023-01-22T03:32:28.873Z,89.15
2023-01-22T03:33:28.884Z,89.15
2023-01-22T03:34:28.887Z,89.15
2023-01-22T03:35:28.848Z,89.31
2023-01-22T03:36:28.826Z,88.79
2023-01-22T03:37:28.828Z,88.94
2023-01-22T03:38:28.807Z,88.59
2023-01-22T03:39:28.806Z,89.04
2023-01-22T03:40:28.799Z,89.21
2023-01-22T03:41:28.769Z,88.48
2023-01-22T03:42:28.765Z,88.59
2023-01-22T03:43:28.747Z,88.48
2023-01-22T03:44:28.805Z,88.59
2023-01-22T03:45:28.766Z,88.23
2023-01-22T03:46:28.727Z,87.86
2023-01-22T03:47:28.707Z,87.86
2023-01-22T03:48:28.693Z,88.73
2023-01-22T03:49:28.687Z,88.94
2023-01-22T03:50:28.675Z,89.04
2023-01-22T03:51:28.711Z,89.31
2023-01-22T03:52:28.667Z,88.69
2023-01-22T03:53:28.647Z,88.23
2023-01-22T03:54:28.631Z,87.51
2023-01-22T03:55:28.620Z,87.51
2023-01-22T03:56:28.609Z,87.51
2023-01-22T03:57:28.647Z,87.61
2023-01-22T03:58:28.700Z,87.40
2023-01-22T03:59:28.623Z,87.65
2023-01-22T04:00:28.569Z,87.96
2023-01-22T04:01:28.591Z,87.65
2023-01-22T04:02:28.565Z,88.28
2023-01-22T04:03:28.589Z,87.82
2023-01-22T04:04:28.536Z,87.51
2023-01-22T04:05:28.493Z,87.65
2023-01-22T04:06:28.498Z,88.07
2023-01-22T04:07:28.488Z,87.96
2023-01-22T04:08:28.487Z,88.02
2023-01-22T04:09:28.480Z,87.24
2023-01-22T04:10:28.493Z,87.76
2023-01-22T04:11:28.437Z,88.17
2023-01-22T04:12:28.472Z,88.28
2023-01-22T04:13:28.499Z,87.92
2023-01-22T04:14:28.437Z,87.30
2023-01-22T04:15:28.391Z,87.30
2023-01-22T04:16:28.456Z,87.34
2023-01-22T04:17:28.363Z,87.86
2023-01-22T04:18:28.368Z,87.30
2023-01-22T04:19:28.349Z,87.19
2023-01-22T04:20:28.408Z,86.88
2023-01-22T04:21:28.363Z,86.88
2023-01-22T04:22:28.313Z,86.99
2023-01-22T04:23:28.301Z,87.13
2023-01-22T04:24:28.292Z,87.34
2023-01-22T04:25:28.269Z,87.30
2023-01-22T04:26:28.311Z,87.03
2023-01-22T04:27:28.269Z,87.45
2023-01-22T04:28:28.251Z,87.96
2023-01-22T04:29:28.242Z,87.79
2023-01-22T04:30:28.278Z,88.07
2023-01-22T04:31:28.323Z,87.82
2023-01-22T04:32:28.219Z,87.45
2023-01-22T04:33:28.194Z,87.82
2023-01-22T04:34:28.180Z,87.76
2023-01-22T04:35:28.169Z,87.34
2023-01-22T04:36:29.114Z,87.19
2023-01-22T04:37:28.167Z,87.24
2023-01-22T04:38:28.503Z,87.34
2023-01-22T04:39:28.111Z,87.45
2023-01-22T04:40:28.119Z,87.65
2023-01-22T04:41:28.110Z,87.34
2023-01-22T04:42:28.091Z,87.61
2023-01-22T04:43:28.060Z,87.19
2023-01-22T04:44:28.090Z,87.40
2023-01-22T04:45:28.059Z,86.85
2023-01-22T04:46:28.083Z,86.57
2023-01-22T04:47:28.037Z,86.78
2023-01-22T04:48:28.056Z,86.68
2023-01-22T04:49:28.044Z,86.43
2023-01-22T04:50:27.998Z,86.26
2023-01-22T04:51:28.075Z,86.57
2023-01-22T04:52:27.973Z,86.68
2023-01-22T04:53:28.104Z,87.03
2023-01-22T04:54:27.953Z,87.19
2023-01-22T04:55:27.996Z,86.99
2023-01-22T04:56:27.922Z,86.88
2023-01-22T04:57:27.935Z,87.34
2023-01-22T04:58:27.946Z,86.99
2023-01-22T04:59:27.914Z,86.88
2023-01-22T05:00:27.946Z,86.78
2023-01-22T05:01:27.948Z,86.78
2023-01-22T05:02:27.902Z,86.57
2023-01-22T05:03:27.854Z,86.68
2023-01-22T05:04:27.852Z,86.57
2023-01-22T05:05:27.849Z,86.57
2023-01-22T05:06:27.822Z,86.78
2023-01-22T05:07:27.823Z,86.57
2023-01-22T05:08:27.866Z,86.68
2023-01-22T05:09:27.796Z,87.09
2023-01-22T05:10:27.762Z,87.30
2023-01-22T05:11:27.763Z,86.78
2023-01-22T05:12:27.800Z,86.99
2023-01-22T05:13:27.747Z,86.74
2023-01-22T05:14:27.734Z,86.33
2023-01-22T05:15:27.736Z,86.33
2023-01-22T05:16:27.736Z,86.33
2023-01-22T05:17:27.735Z,86.33
2023-01-22T05:18:27.725Z,86.78
2023-01-22T05:19:27.745Z,87.09
2023-01-22T05:20:27.677Z,87.61
2023-01-22T05:21:27.665Z,87.37
2023-01-22T05:22:27.655Z,86.68
2023-01-22T05:23:27.681Z,86.99
2023-01-22T05:24:27.728Z,86.43
2023-01-22T05:25:27.651Z,86.68
2023-01-22T05:26:27.614Z,87.30
2023-01-22T05:27:27.617Z,87.26
2023-01-22T05:28:27.601Z,86.60
2023-01-22T05:29:27.616Z,86.02
2023-01-22T05:30:27.681Z,86.74
2023-01-22T05:31:27.671Z,86.85
2023-01-22T05:32:27.565Z,86.95
2023-01-22T05:33:27.526Z,86.12
2023-01-22T05:34:27.546Z,86.57
2023-01-22T05:35:27.531Z,87.40
2023-01-22T05:36:27.549Z,87.71
2023-01-22T05:37:27.526Z,87.78
2023-01-22T05:38:27.493Z,87.16
2023-01-22T05:39:27.517Z,87.16
2023-01-22T05:40:27.447Z,87.26
2023-01-22T05:41:27.446Z,87.51
2023-01-22T05:42:27.489Z,87.51
2023-01-22T05:43:27.433Z,87.40
2023-01-22T05:44:27.416Z,87.26
2023-01-22T05:45:27.409Z,87.09
2023-01-22T05:46:27.478Z,87.71
2023-01-22T05:47:27.419Z,87.71
2023-01-22T05:48:27.376Z,88.28
2023-01-22T05:49:27.399Z,88.38
2023-01-22T05:50:27.387Z,88.34
2023-01-22T05:51:27.440Z,88.54
2023-01-22T05:52:27.368Z,88.20
2023-01-22T05:53:27.354Z,87.99
2023-01-22T05:54:27.323Z,87.57
2023-01-22T05:55:27.324Z,87.68
2023-01-22T05:56:27.308Z,87.92
2023-01-22T05:57:27.271Z,88.34
2023-01-22T05:58:27.288Z,88.20
2023-01-22T05:59:27.289Z,87.61
2023-01-22T06:00:27.238Z,87.92
2023-01-22T06:01:27.233Z,87.82
2023-01-22T06:02:27.242Z,87.37
2023-01-22T06:03:27.262Z,87.01
2023-01-22T06:04:27.246Z,87.09
2023-01-22T06:05:27.272Z,87.37
2023-01-22T06:06:27.163Z,86.95
2023-01-22T06:07:27.175Z,86.88
2023-01-22T06:08:27.185Z,87.96
2023-01-22T06:09:27.144Z,88.69
2023-01-22T06:10:27.154Z,88.34
2023-01-22T06:11:27.110Z,88.13
2023-01-22T06:12:27.098Z,87.71
2023-01-22T06:13:27.096Z,87.40
2023-01-22T06:14:27.082Z,88.02
2023-01-22T06:15:27.131Z,87.51
2023-01-22T06:16:27.164Z,87.37
2023-01-22T06:17:27.063Z,87.40
2023-01-22T06:18:27.049Z,87.92
2023-01-22T06:19:27.019Z,87.92
2023-01-22T06:20:27.123Z,88.23
2023-01-22T06:21:27.007Z,87.99
2023-01-22T06:22:27.046Z,87.12
2023-01-22T06:23:26.992Z,86.55
2023-01-22T06:24:26.987Z,85.73
2023-01-22T06:25:26.962Z,85.73
2023-01-22T06:26:26.989Z,85.77
2023-01-22T06:27:27.004Z,85.66
2023-01-22T06:28:26.948Z,85.97
2023-01-22T06:29:26.941Z,86.29
2023-01-22T06:30:26.927Z,85.83
2023-01-22T06:31:26.942Z,85.42
2023-01-22T06:32:26.950Z,85.81
2023-01-22T06:33:26.891Z,86.85
2023-01-22T06:34:26.870Z,87.05
2023-01-22T06:35:26.891Z,86.85
2023-01-22T06:36:26.830Z,86.74
2023-01-22T06:37:26.865Z,86.95
2023-01-22T06:38:26.800Z,86.60
2023-01-22T06:39:26.844Z,86.43
2023-01-22T06:40:26.890Z,86.60
2023-01-22T06:41:26.772Z,86.39
2023-01-22T06:42:26.804Z,85.77
2023-01-22T06:43:26.766Z,85.56
2023-01-22T06:44:26.757Z,85.46
2023-01-22T06:45:26.868Z,86.33
2023-01-22T06:46:26.768Z,86.43
2023-01-22T06:47:26.720Z,86.18
2023-01-22T06:48:26.722Z,86.08
2023-01-22T06:49:26.711Z,86.33
2023-01-22T06:50:26.690Z,86.95
2023-01-22T06:51:26.768Z,86.95
2023-01-22T06:52:26.677Z,86.85
2023-01-22T06:53:26.701Z,86.74
2023-01-22T06:54:26.636Z,86.74
2023-01-22T06:55:26.658Z,86.70
2023-01-22T06:56:26.680Z,86.49
2023-01-22T06:57:26.664Z,86.18
2023-01-22T06:58:26.594Z,86.08
2023-01-22T06:59:26.578Z,85.77
2023-01-22T07:00:26.580Z,86.08
2023-01-22T07:01:26.582Z,86.95
2023-01-22T07:02:26.736Z,87.12
2023-01-22T07:03:26.670Z,86.39
2023-01-22T07:04:26.687Z,86.18
2023-01-22T07:05:26.513Z,86.39
2023-01-22T07:06:26.503Z,86.49
2023-01-22T07:07:26.565Z,86.18
2023-01-22T07:08:26.488Z,86.08
2023-01-22T07:09:26.474Z,86.64
2023-01-22T07:10:26.486Z,86.88
2023-01-22T07:11:26.445Z,87.47
2023-01-22T07:12:26.453Z,87.82
2023-01-22T07:13:26.454Z,87.78
2023-01-22T07:14:36.460Z,87.01
2023-01-22T07:15:27.411Z,86.25
2023-01-22T07:16:26.445Z,85.83
2023-01-22T07:17:26.605Z,85.73
2023-01-22T07:18:26.559Z,85.42
2023-01-22T07:19:26.442Z,85.52
2023-01-22T07:20:26.357Z,85.31
2023-01-22T07:21:26.365Z,85.31
2023-01-22T07:22:26.339Z,85.31
2023-01-22T07:23:26.426Z,85.63
2023-01-22T07:24:26.340Z,85.48
2023-01-22T07:25:26.295Z,85.66
2023-01-22T07:26:26.297Z,85.83
2023-01-22T07:27:26.311Z,85.38
2023-01-22T07:28:26.261Z,85.31
2023-01-22T07:29:26.259Z,85.83
2023-01-22T07:30:26.305Z,85.87
2023-01-22T07:31:26.316Z,87.16
2023-01-22T07:32:26.262Z,87.43
2023-01-22T07:33:26.215Z,87.18
2023-01-22T07:34:26.214Z,86.55
2023-01-22T07:35:26.214Z,86.04
2023-01-22T07:36:26.212Z,86.15
2023-01-22T07:37:26.174Z,86.49
2023-01-22T07:38:26.161Z,86.49
2023-01-22T07:39:26.138Z,86.91
2023-01-22T07:40:26.171Z,87.12
2023-01-22T07:41:26.460Z,87.43
2023-01-22T07:42:26.137Z,87.32
2023-01-22T07:43:26.100Z,87.43
2023-01-22T07:44:26.138Z,86.62
2023-01-22T07:45:26.080Z,85.97
2023-01-22T07:46:26.101Z,86.80
2023-01-22T07:47:26.066Z,87.22
2023-01-22T07:48:26.097Z,87.22
2023-01-22T07:49:26.028Z,86.87
2023-01-22T07:50:26.023Z,86.18
2023-01-22T07:51:26.048Z,86.91
2023-01-22T07:52:25.997Z,86.66
2023-01-22T07:53:26.783Z,86.91
2023-01-22T07:54:26.040Z,87.22
2023-01-22T07:55:26.005Z,86.91
2023-01-22T07:56:25.960Z,87.53
2023-01-22T07:57:25.957Z,87.18
2023-01-22T07:58:25.944Z,87.22
2023-01-22T07:59:26.158Z,87.32
2023-01-22T08:00:25.920Z,87.78
2023-01-22T08:01:25.925Z,88.26
2023-01-22T08:02:25.942Z,88.05
2023-01-22T08:03:25.931Z,87.95
2023-01-22T08:04:25.944Z,87.90
2023-01-22T08:05:25.890Z,87.59
2023-01-22T08:06:25.968Z,87.38
2023-01-22T08:07:27.798Z,87.38
2023-01-22T08:08:25.886Z,87.45
2023-01-22T08:09:25.916Z,86.62
2023-01-22T08:10:25.857Z,86.72
2023-01-22T08:11:25.859Z,87.28
2023-01-22T08:12:25.786Z,87.35
2023-01-22T08:13:25.784Z,87.49
2023-01-22T08:14:25.763Z,87.28
2023-01-22T08:15:26.632Z,87.07
2023-01-22T08:16:25.814Z,87.18
2023-01-22T08:17:25.735Z,88.01
2023-01-22T08:18:25.750Z,88.11
2023-01-22T08:19:25.716Z,88.32
2023-01-22T08:20:25.770Z,87.43
2023-01-22T08:21:25.719Z,87.70
2023-01-22T08:22:25.721Z,87.38
2023-01-22T08:23:25.726Z,86.87
2023-01-22T08:24:25.679Z,86.41
2023-01-22T08:25:25.732Z,85.86
2023-01-22T08:26:25.663Z,85.58
2023-01-22T08:27:25.678Z,86.00
2023-01-22T08:28:25.604Z,86.00
2023-01-22T08:29:25.599Z,85.38
2023-01-22T08:30:25.584Z,85.79
2023-01-22T08:31:28.219Z,85.73
2023-01-22T08:32:25.655Z,86.00
2023-01-22T08:33:25.581Z,86.00
2023-01-22T08:34:25.545Z,85.83
2023-01-22T08:35:25.595Z,86.00
2023-01-22T08:36:25.530Z,86.00
2023-01-22T08:37:25.554Z,85.34
2023-01-22T08:38:25.517Z,85.17
2023-01-22T08:39:25.672Z,85.83
2023-01-22T08:40:25.569Z,86.45
2023-01-22T08:41:25.479Z,86.31
2023-01-22T08:42:25.450Z,86.04
2023-01-22T08:43:25.454Z,86.66
2023-01-22T08:44:25.464Z,86.55
2023-01-22T08:45:25.538Z,86.35
2023-01-22T08:46:25.401Z,86.45
2023-01-22T08:47:25.401Z,86.76
2023-01-22T08:48:25.394Z,86.35
2023-01-22T08:49:25.371Z,86.21
2023-01-22T08:50:25.440Z,85.89
2023-01-22T08:51:25.364Z,85.79
2023-01-22T08:52:25.364Z,85.58
2023-01-22T08:53:25.341Z,85.79
2023-01-22T08:54:25.427Z,85.48
2023-01-22T08:55:25.340Z,85.48
2023-01-22T08:56:25.338Z,85.34
2023-01-22T08:57:25.294Z,84.72
2023-01-22T08:58:25.305Z,84.96
2023-01-22T08:59:25.282Z,85.48
2023-01-22T09:00:25.309Z,85.38
2023-01-22T09:01:25.306Z,85.24
2023-01-22T09:02:25.327Z,84.78
2023-01-22T09:03:25.224Z,84.27
2023-01-22T09:04:25.215Z,84.06
2023-01-22T09:05:25.248Z,83.75
2023-01-22T09:06:25.202Z,83.75
2023-01-22T09:07:25.213Z,83.78
2023-01-22T09:08:25.174Z,84.75
2023-01-22T09:09:25.167Z,85.73
2023-01-22T09:10:25.472Z,86.00
2023-01-22T09:11:25.135Z,85.89
2023-01-22T09:12:25.143Z,85.89
2023-01-22T09:13:25.173Z,85.55
2023-01-22T09:14:25.121Z,84.72
2023-01-22T09:15:25.103Z,84.72
2023-01-22T09:16:25.111Z,85.27
2023-01-22T09:17:25.074Z,85.79
2023-01-22T09:18:25.108Z,85.58
2023-01-22T09:19:25.054Z,85.89
2023-01-22T09:20:25.056Z,86.00
2023-01-22T09:21:25.039Z,85.55
2023-01-22T09:22:25.229Z,84.92
2023-01-22T09:23:25.146Z,84.82
2023-01-22T09:24:25.030Z,84.72
2023-01-22T09:25:25.047Z,85.06
2023-01-22T09:26:24.974Z,85.79
2023-01-22T09:27:25.329Z,85.89
2023-01-22T09:28:24.957Z,86.41
2023-01-22T09:29:24.954Z,86.45
2023-01-22T09:30:25.067Z,86.93
2023-01-22T09:31:25.001Z,86.52
2023-01-22T09:32:24.967Z,85.71
2023-01-22T09:33:24.902Z,84.74
2023-01-22T09:34:24.923Z,83.50
2023-01-22T09:35:24.899Z,83.61
2023-01-22T09:36:24.910Z,83.40
2023-01-22T09:37:24.868Z,83.71
2023-01-22T09:38:24.849Z,82.84
2023-01-22T09:39:24.836Z,82.26
2023-01-22T09:40:24.837Z,82.74
2023-01-22T09:41:24.848Z,82.43
2023-01-22T09:42:24.793Z,82.43
2023-01-22T09:43:24.810Z,82.36
2023-01-22T09:44:24.775Z,82.78
2023-01-22T09:45:24.770Z,82.78
2023-01-22T09:46:24.755Z,82.43
2023-01-22T09:47:24.772Z,82.05
2023-01-22T09:48:24.781Z,83.19
2023-01-22T09:49:24.717Z,82.98
2023-01-22T09:50:24.714Z,82.32
2023-01-22T09:51:24.791Z,82.36
2023-01-22T09:52:24.676Z,82.57
2023-01-22T09:53:24.740Z,82.81
2023-01-22T09:54:24.649Z,82.98
2023-01-22T09:55:24.636Z,83.09
2023-01-22T09:56:24.646Z,82.98
2023-01-22T09:57:31.587Z,83.78
2023-01-22T09:58:25.635Z,83.89
2023-01-22T09:59:24.612Z,84.72
2023-01-22T10:00:24.578Z,84.37
2023-01-22T10:01:24.705Z,83.81
2023-01-22T10:02:24.581Z,83.44
2023-01-22T10:03:24.572Z,83.75
2023-01-22T10:04:24.571Z,83.33
2023-01-22T10:05:24.542Z,83.68
2023-01-22T10:06:24.527Z,83.75
2023-01-22T10:07:24.497Z,83.44
2023-01-22T10:08:24.499Z,83.95
2023-01-22T10:09:24.489Z,83.29
2023-01-22T10:10:24.507Z,83.19
2023-01-22T10:11:24.461Z,82.98
2023-01-22T10:12:24.461Z,82.78
2023-01-22T10:13:24.436Z,82.15
2023-01-22T10:14:24.419Z,82.36
2023-01-22T10:15:24.409Z,82.26
2023-01-22T10:16:24.488Z,82.57
2023-01-22T10:17:24.443Z,82.01
2023-01-22T10:18:24.383Z,82.01
2023-01-22T10:19:24.369Z,81.95
2023-01-22T10:20:24.371Z,82.98
2023-01-22T10:21:24.361Z,83.02
2023-01-22T10:22:24.391Z,83.64
2023-01-22T10:23:24.355Z,83.61
2023-01-22T10:24:24.335Z,83.40
2023-01-22T10:25:24.300Z,82.74
2023-01-22T10:26:24.280Z,82.08
2023-01-22T10:27:24.284Z,81.49
2023-01-22T10:28:24.285Z,82.64
2023-01-22T10:29:24.256Z,81.98
2023-01-22T10:30:24.258Z,82.01
2023-01-22T10:31:24.365Z,82.29
2023-01-22T10:32:24.216Z,82.26
2023-01-22T10:33:24.261Z,82.98
2023-01-22T10:34:24.191Z,83.19
2023-01-22T10:35:24.171Z,83.50
2023-01-22T10:36:24.172Z,83.25
2023-01-22T10:37:24.170Z,82.43
2023-01-22T10:38:24.161Z,81.87
2023-01-22T10:39:24.190Z,81.95
2023-01-22T10:40:24.162Z,82.46
2023-01-22T10:41:24.121Z,82.32
2023-01-22T10:42:24.114Z,82.01
2023-01-22T10:43:24.081Z,81.91
2023-01-22T10:44:24.084Z,82.15
2023-01-22T10:45:24.086Z,82.98
2023-01-22T10:46:24.102Z,83.64
2023-01-22T10:47:24.051Z,83.85
2023-01-22T10:48:24.067Z,83.91
2023-01-22T10:49:24.011Z,84.16
2023-01-22T10:50:24.087Z,84.82
2023-01-22T10:51:24.039Z,85.24
2023-01-22T10:52:24.006Z,85.13
2023-01-22T10:53:23.974Z,84.92
2023-01-22T10:54:23.968Z,84.92
2023-01-22T10:55:23.955Z,85.03
2023-01-22T10:56:23.942Z,85.03
2023-01-22T10:57:23.956Z,85.13
2023-01-22T10:58:24.018Z,85.24
2023-01-22T10:59:23.933Z,85.13
2023-01-22T11:00:23.904Z,84.88
2023-01-22T11:01:23.938Z,84.47
2023-01-22T11:02:23.940Z,84.22
2023-01-22T11:03:23.875Z,83.71
2023-01-22T11:04:23.856Z,83.19
2023-01-22T11:05:23.860Z,83.40
2023-01-22T11:06:23.822Z,83.29
2023-01-22T11:07:23.832Z,83.15
2023-01-22T11:08:23.835Z,83.44
2023-01-22T11:09:23.783Z,84.37
2023-01-22T11:10:23.804Z,84.16
2023-01-22T11:11:23.796Z,83.71
2023-01-22T11:12:23.765Z,83.78
2023-01-22T11:13:23.759Z,84.51
2023-01-22T11:14:23.795Z,84.27
2023-01-22T11:15:23.734Z,84.37
2023-01-22T11:16:23.721Z,84.20
2023-01-22T11:17:23.736Z,83.54
2023-01-22T11:18:23.708Z,83.50
2023-01-22T11:19:36.567Z,82.74
2023-01-22T11:20:24.686Z,82.01
2023-01-22T11:21:23.661Z,81.70
2023-01-22T11:22:23.654Z,82.15
2023-01-22T11:23:23.634Z,82.71
2023-01-22T11:24:23.625Z,83.23
2023-01-22T11:25:23.640Z,82.92
2023-01-22T11:26:23.603Z,82.88
2023-01-22T11:27:23.637Z,82.86
2023-01-22T11:28:23.623Z,83.47
2023-01-22T11:29:23.574Z,84.16
2023-01-22T11:30:24.278Z,83.75
2023-01-22T11:31:23.636Z,83.19
2023-01-22T11:32:23.535Z,82.32
2023-01-22T11:33:23.559Z,82.67
2023-01-22T11:34:23.498Z,82.43
2023-01-22T11:35:23.505Z,81.49
2023-01-22T11:36:23.486Z,81.19
2023-01-22T11:37:23.527Z,81.60
2023-01-22T11:38:23.555Z,81.39
2023-01-22T11:39:23.465Z,81.09
2023-01-22T11:40:23.435Z,80.63
2023-01-22T11:41:23.494Z,80.01
2023-01-22T11:42:23.433Z,80.32
2023-01-22T11:43:23.432Z,79.91
2023-01-22T11:44:23.438Z,79.66
2023-01-22T11:45:23.386Z,79.36
2023-01-22T11:46:23.457Z,79.39
2023-01-22T11:47:23.379Z,79.74
2023-01-22T11:48:23.355Z,80.63
2023-01-22T11:49:23.377Z,79.80
2023-01-22T11:50:23.332Z,80.22
2023-01-22T11:51:23.407Z,79.80
2023-01-22T11:52:23.304Z,79.49
2023-01-22T11:53:23.302Z,79.94
2023-01-22T11:54:23.289Z,80.46
2023-01-22T11:55:23.300Z,80.22
2023-01-22T11:56:23.258Z,80.53
2023-01-22T11:57:23.259Z,80.32
2023-01-22T11:58:23.239Z,80.01
2023-01-22T11:59:23.229Z,79.84
2023-01-22T12:00:23.439Z,80.01
2023-01-22T12:01:23.238Z,80.46
2023-01-22T12:02:23.220Z,80.46
2023-01-22T12:03:23.230Z,81.33
2023-01-22T12:04:23.162Z,81.19
2023-01-22T12:05:23.164Z,81.49
2023-01-22T12:06:23.183Z,81.29
2023-01-22T12:07:23.157Z,81.23
2023-01-22T12:08:23.129Z,81.54
2023-01-22T12:09:23.130Z,81.09
2023-01-22T12:10:23.116Z,80.88
2023-01-22T12:11:23.097Z,81.19
2023-01-22T12:12:23.105Z,80.77
2023-01-22T12:13:23.061Z,80.88
2023-01-22T12:14:23.047Z,80.53
2023-01-22T12:15:23.048Z,80.57
2023-01-22T12:16:23.100Z,81.29
2023-01-22T12:17:23.012Z,80.63
2023-01-22T12:18:23.167Z,80.88
2023-01-22T12:19:23.046Z,80.88
2023-01-22T12:20:22.978Z,81.33
2023-01-22T12:21:22.971Z,81.60
2023-01-22T12:22:22.969Z,80.94
2023-01-22T12:23:22.956Z,80.63
2023-01-22T12:24:22.986Z,80.84
2023-01-22T12:25:22.921Z,81.33
2023-01-22T12:26:22.921Z,82.15
2023-01-22T12:27:22.932Z,81.60
2023-01-22T12:28:22.892Z,81.60
2023-01-22T12:29:22.900Z,81.05
2023-01-22T12:30:22.872Z,81.33
2023-01-22T12:31:22.959Z,82.26
2023-01-22T12:32:22.848Z,82.98
2023-01-22T12:33:22.877Z,82.84
2023-01-22T12:34:22.828Z,81.98
2023-01-22T12:35:22.848Z,81.39
2023-01-22T12:36:22.809Z,81.60
2023-01-22T12:37:22.784Z,81.77
2023-01-22T12:38:22.783Z,81.25
2023-01-22T12:39:22.764Z,81.33
2023-01-22T12:40:22.748Z,81.91
2023-01-22T12:41:22.800Z,81.81
2023-01-22T12:42:22.739Z,81.25
2023-01-22T12:43:22.711Z,81.49
2023-01-22T12:44:22.741Z,82.01
2023-01-22T12:45:22.692Z,82.32
2023-01-22T12:46:22.757Z,82.43
2023-01-22T12:47:22.744Z,82.53
2023-01-22T12:48:22.667Z,83.09
2023-01-22T12:49:22.652Z,83.25
2023-01-22T12:50:22.795Z,83.54
2023-01-22T12:51:22.664Z,84.27
2023-01-22T12:52:22.604Z,84.22